Time,TemperatureF,DewpointF,PressureIn,WindDirection,WindDirectionDegrees,WindSpeedMPH,WindSpeedGustMPH,Humidity,HourlyPrecipIn,Conditions,Clouds,dailyrainin,SoftwareType,DateUTC
2013-06-20 00:00:00,74.5,40.2,29.30,WNW,290,0.0,1.0,29,0.00,,---,0.00,VWS V14.00,2013-06-20 06:00:00,
2013-06-20 00:05:00,73.4,40.1,29.30,WNW,290,0.0,4.0,30,0.00,,---,0.00,VWS V14.00,2013-06-20 06:05:00,
2013-06-20 00:10:00,72.0,34.3,29.29,South,178,0.0,6.0,25,0.00,,---,0.00,VWS V14.00,2013-06-20 06:10:00,
2013-06-20 00:15:00,72.7,29.4,29.29,NNW,338,0.0,2.0,20,0.00,,---,0.00,VWS V14.00,2013-06-20 06:15:00,
2013-06-20 00:20:00,73.3,34.4,29.29,NNW,346,5.0,11.0,24,0.00,,---,0.00,VWS V14.00,2013-06-20 06:20:00,
2013-06-20 00:25:00,74.1,29.2,29.30,WNW,295,3.0,6.0,19,0.00,,---,0.00,VWS V14.00,2013-06-20 06:25:00,
2013-06-20 00:31:00,74.1,27.9,29.29,West,274,10.0,11.0,18,0.00,,---,0.00,VWS V14.00,2013-06-20 06:31:00,
2013-06-20 00:36:00,74.4,23.8,29.28,North,360,0.0,4.0,15,0.00,,---,0.00,VWS V14.00,2013-06-20 06:36:00,
2013-06-20 00:41:00,75.2,22.8,29.29,West,271,0.0,7.0,14,0.00,,---,0.00,VWS V14.00,2013-06-20 06:41:00,
2013-06-20 00:46:00,75.6,23.1,29.29,West,271,0.0,0.0,14,0.00,,---,0.00,VWS V14.00,2013-06-20 06:46:00,
2013-06-20 00:51:00,75.1,22.7,29.29,West,274,0.0,3.0,14,0.00,,---,0.00,VWS V14.00,2013-06-20 06:51:00,
2013-06-20 00:56:00,74.7,22.4,29.29,West,274,0.0,0.0,14,0.00,,---,0.00,VWS V14.00,2013-06-20 06:56:00,
2013-06-20 01:01:00,74.0,23.5,29.29,South,189,0.0,5.0,15,0.00,,---,0.00,VWS V14.00,2013-06-20 07:01:00,
2013-06-20 01:06:00,73.5,23.1,29.29,South,190,0.0,0.0,15,0.00,,---,0.00,VWS V14.00,2013-06-20 07:06:00,
2013-06-20 01:11:00,73.1,25.7,29.30,South,190,0.0,0.0,17,0.00,,---,0.00,VWS V14.00,2013-06-20 07:11:00,
2013-06-20 01:16:00,72.7,28.1,29.29,NNW,346,4.0,4.0,19,0.00,,---,0.00,VWS V14.00,2013-06-20 07:16:00,
2013-06-20 01:21:00,71.4,29.5,29.29,NW,304,6.0,7.0,21,0.00,,---,0.00,VWS V14.00,2013-06-20 07:21:00,
2013-06-20 01:26:00,71.6,27.2,29.30,North,355,2.0,7.0,19,0.00,,---,0.00,VWS V14.00,2013-06-20 07:26:00,
2013-06-20 01:31:00,70.1,26.0,29.30,North,11,4.0,7.0,19,0.00,,---,0.00,VWS V14.00,2013-06-20 07:31:00,
2013-06-20 01:36:00,69.1,23.9,29.30,NNW,333,6.0,7.0,18,0.00,,---,0.00,VWS V14.00,2013-06-20 07:36:00,
2013-06-20 01:41:00,69.0,26.3,29.30,NW,316,5.0,7.0,20,0.00,,---,0.00,VWS V14.00,2013-06-20 07:41:00,
2013-06-20 01:46:00,69.9,25.8,29.30,NNW,331,5.0,6.0,19,0.00,,---,0.00,VWS V14.00,2013-06-20 07:46:00,
2013-06-20 01:51:00,70.7,31.1,29.30,NW,313,3.0,6.0,23,0.00,,---,0.00,VWS V14.00,2013-06-20 07:51:00,
2013-06-20 01:56:00,70.4,26.2,29.29,NW,313,0.0,1.0,19,0.00,,---,0.00,VWS V14.00,2013-06-20 07:56:00,
2013-06-20 02:01:00,70.6,25.1,29.29,WNW,288,8.0,9.0,18,0.00,,---,0.00,VWS V14.00,2013-06-20 08:01:00,
2013-06-20 02:06:00,71.2,26.9,29.29,WNW,294,0.0,0.0,19,0.00,,---,0.00,VWS V14.00,2013-06-20 08:06:00,
2013-06-20 02:11:00,70.8,26.5,29.30,WNW,295,0.0,0.0,19,0.00,,---,0.00,VWS V14.00,2013-06-20 08:11:00,
2013-06-20 02:16:00,70.1,27.2,29.30,NW,306,0.0,1.0,20,0.00,,---,0.00,VWS V14.00,2013-06-20 08:16:00,
2013-06-20 02:21:00,69.3,25.3,29.30,NW,306,0.0,4.0,19,0.00,,---,0.00,VWS V14.00,2013-06-20 08:21:00,
2013-06-20 02:26:00,69.1,23.9,29.30,NW,306,0.0,0.0,18,0.00,,---,0.00,VWS V14.00,2013-06-20 08:26:00,
2013-06-20 02:32:00,68.5,24.6,29.30,NW,320,6.0,6.0,19,0.00,,---,0.00,VWS V14.00,2013-06-20 08:32:00,
2013-06-20 02:37:00,67.3,22.4,29.30,NW,306,6.0,6.0,18,0.00,,---,0.00,VWS V14.00,2013-06-20 08:37:00,
2013-06-20 02:42:00,67.9,21.5,29.30,WNW,297,6.0,10.0,17,0.00,,---,0.00,VWS V14.00,2013-06-20 08:42:00,
2013-06-20 02:47:00,68.8,22.2,29.30,NNE,25,1.0,4.0,17,0.00,,---,0.00,VWS V14.00,2013-06-20 08:47:00,
2013-06-20 02:52:00,67.3,19.6,29.31,NNW,333,4.0,6.0,16,0.00,,---,0.00,VWS V14.00,2013-06-20 08:52:00,
2013-06-20 02:57:00,65.9,23.7,29.31,NNW,345,5.0,7.0,20,0.00,,---,0.00,VWS V14.00,2013-06-20 08:57:00,
2013-06-20 03:02:00,65.0,28.4,29.31,North,351,4.0,7.0,25,0.00,,---,0.00,VWS V14.00,2013-06-20 09:02:00,
2013-06-20 03:07:00,64.0,32.8,29.31,North,5,3.0,5.0,31,0.00,,---,0.00,VWS V14.00,2013-06-20 09:07:00,
2013-06-20 03:12:00,63.2,36.5,29.30,North,349,6.0,7.0,37,0.00,,---,0.00,VWS V14.00,2013-06-20 09:12:00,
2013-06-20 03:17:00,63.4,39.9,29.31,NNW,337,5.0,7.0,42,0.00,,---,0.00,VWS V14.00,2013-06-20 09:17:00,
2013-06-20 03:22:00,63.5,39.4,29.31,NNW,339,0.0,7.0,41,0.00,,---,0.00,VWS V14.00,2013-06-20 09:22:00,
2013-06-20 03:27:00,63.0,39.0,29.31,NNW,340,0.0,4.0,41,0.00,,---,0.00,VWS V14.00,2013-06-20 09:27:00,
2013-06-20 03:32:00,62.9,39.5,29.31,NNW,335,5.0,5.0,42,0.00,,---,0.00,VWS V14.00,2013-06-20 09:32:00,
2013-06-20 03:37:00,62.9,40.7,29.31,NNW,331,6.0,8.0,44,0.00,,---,0.00,VWS V14.00,2013-06-20 09:37:00,
2013-06-20 03:42:00,63.2,41.0,29.31,NW,315,5.0,8.0,44,0.00,,---,0.00,VWS V14.00,2013-06-20 09:42:00,
2013-06-20 03:47:00,63.0,38.3,29.31,North,355,0.0,2.0,40,0.00,,---,0.00,VWS V14.00,2013-06-20 09:47:00,
2013-06-20 03:52:00,62.7,38.7,29.31,North,360,0.0,2.0,41,0.00,,---,0.00,VWS V14.00,2013-06-20 09:52:00,
2013-06-20 03:57:00,62.6,36.7,29.31,North,355,2.0,2.0,38,0.00,,---,0.00,VWS V14.00,2013-06-20 09:57:00,
2013-06-20 04:02:00,62.7,36.1,29.31,North,355,0.0,3.0,37,0.00,,---,0.00,VWS V14.00,2013-06-20 10:02:00,
2013-06-20 04:07:00,63.1,36.4,29.31,North,355,0.0,0.0,37,0.00,,---,0.00,VWS V14.00,2013-06-20 10:07:00,
2013-06-20 04:12:00,63.3,37.3,29.31,North,355,0.0,1.0,38,0.00,,---,0.00,VWS V14.00,2013-06-20 10:12:00,
2013-06-20 04:17:00,63.4,33.8,29.31,NNW,346,0.0,1.0,33,0.00,,---,0.00,VWS V14.00,2013-06-20 10:17:00,
2013-06-20 04:22:00,63.1,30.4,29.31,NNW,346,0.0,3.0,29,0.00,,---,0.00,VWS V14.00,2013-06-20 10:22:00,
2013-06-20 04:27:00,62.4,35.1,29.32,NNW,346,0.0,0.0,36,0.00,,---,0.00,VWS V14.00,2013-06-20 10:27:00,
2013-06-20 04:33:00,62.5,36.6,29.32,NNW,346,0.0,1.0,38,0.00,,---,0.00,VWS V14.00,2013-06-20 10:33:00,
2013-06-20 04:38:00,62.8,36.8,29.32,NNW,346,0.0,1.0,38,0.00,,---,0.00,VWS V14.00,2013-06-20 10:38:00,
2013-06-20 04:43:00,62.9,36.9,29.32,NNW,346,0.0,1.0,38,0.00,,---,0.00,VWS V14.00,2013-06-20 10:43:00,
2013-06-20 04:48:00,62.5,36.6,29.32,NNW,346,0.0,0.0,38,0.00,,---,0.00,VWS V14.00,2013-06-20 10:48:00,
2013-06-20 04:53:00,61.7,35.2,29.32,SSE,153,0.0,1.0,37,0.00,,---,0.00,VWS V14.00,2013-06-20 10:53:00,
2013-06-20 04:58:00,62.3,34.3,29.33,SSE,156,0.0,4.0,35,0.00,,---,0.00,VWS V14.00,2013-06-20 10:58:00,
2013-06-20 05:03:00,62.0,33.3,29.33,SW,215,0.0,4.0,34,0.00,,---,0.00,VWS V14.00,2013-06-20 11:03:00,
2013-06-20 05:08:00,62.2,35.6,29.33,WSW,246,7.0,9.0,37,0.00,,---,0.00,VWS V14.00,2013-06-20 11:08:00,
2013-06-20 05:13:00,62.6,34.6,29.33,WSW,242,8.0,10.0,35,0.00,,---,0.00,VWS V14.00,2013-06-20 11:13:00,
2013-06-20 05:18:00,63.0,34.9,29.33,SW,231,10.0,10.0,35,0.00,,---,0.00,VWS V14.00,2013-06-20 11:18:00,
2013-06-20 05:23:00,62.8,33.3,29.33,SW,220,5.0,10.0,33,0.00,,---,0.00,VWS V14.00,2013-06-20 11:23:00,
2013-06-20 05:28:00,63.0,29.4,29.33,SW,219,7.0,8.0,28,0.00,,---,0.00,VWS V14.00,2013-06-20 11:28:00,
2013-06-20 05:33:00,62.9,25.6,29.34,SW,215,5.0,8.0,24,0.00,,---,0.00,VWS V14.00,2013-06-20 11:33:00,
2013-06-20 05:38:00,63.1,27.7,29.34,SSW,192,1.0,7.0,26,0.00,,---,0.00,VWS V14.00,2013-06-20 11:38:00,
2013-06-20 05:43:00,62.1,30.3,29.35,SSW,196,6.0,8.0,30,0.00,,---,0.00,VWS V14.00,2013-06-20 11:43:00,
2013-06-20 05:48:00,62.1,31.1,29.35,SW,226,4.0,8.0,31,0.00,,---,0.00,VWS V14.00,2013-06-20 11:48:00,
2013-06-20 05:53:00,62.3,31.3,29.36,SW,234,6.0,8.0,31,0.00,,---,0.00,VWS V14.00,2013-06-20 11:53:00,
2013-06-20 05:58:00,62.5,33.8,29.36,SSW,213,2.0,5.0,34,0.00,,---,0.00,VWS V14.00,2013-06-20 11:58:00,
2013-06-20 06:03:00,62.4,35.1,29.36,SSW,208,0.0,5.0,36,0.00,,---,0.00,VWS V14.00,2013-06-20 12:03:00,
2013-06-20 06:08:00,62.4,36.5,29.36,South,184,5.0,6.0,38,0.00,,---,0.00,VWS V14.00,2013-06-20 12:08:00,
2013-06-20 06:13:00,62.3,37.0,29.36,SSW,211,9.0,9.0,39,0.00,,---,0.00,VWS V14.00,2013-06-20 12:13:00,
2013-06-20 06:18:00,62.5,39.1,29.36,SSW,205,3.0,10.0,42,0.00,,---,0.00,VWS V14.00,2013-06-20 12:18:00,
2013-06-20 06:23:00,62.8,40.6,29.37,South,183,2.0,10.0,44,0.00,,---,0.00,VWS V14.00,2013-06-20 12:23:00,
2013-06-20 06:29:00,62.9,41.3,29.37,SSW,207,3.0,9.0,45,0.00,,---,0.00,VWS V14.00,2013-06-20 12:29:00,
2013-06-20 06:34:00,63.4,41.1,29.37,SSW,192,7.0,10.0,44,0.00,,---,0.00,VWS V14.00,2013-06-20 12:34:00,
2013-06-20 06:39:00,63.8,41.5,29.37,South,182,5.0,10.0,44,0.00,,---,0.00,VWS V14.00,2013-06-20 12:39:00,
2013-06-20 06:44:00,64.0,41.7,29.37,SW,214,9.0,10.0,44,0.00,,---,0.00,VWS V14.00,2013-06-20 12:44:00,
2013-06-20 06:49:00,64.4,42.0,29.38,SW,221,5.0,9.0,44,0.00,,---,0.00,VWS V14.00,2013-06-20 12:49:00,
2013-06-20 06:54:00,64.6,42.8,29.38,SSW,213,9.0,10.0,45,0.00,,---,0.00,VWS V14.00,2013-06-20 12:54:00,
2013-06-20 06:59:00,64.8,42.4,29.38,SSW,200,11.0,12.0,44,0.00,,---,0.00,VWS V14.00,2013-06-20 12:59:00,
2013-06-20 07:04:00,65.0,43.2,29.38,SSW,192,6.0,12.0,45,0.00,,---,0.00,VWS V14.00,2013-06-20 13:04:00,
2013-06-20 07:09:00,65.3,45.1,29.39,South,178,9.0,11.0,48,0.00,,---,0.00,VWS V14.00,2013-06-20 13:09:00,
2013-06-20 07:14:00,65.5,45.8,29.39,South,169,7.0,13.0,49,0.00,,---,0.00,VWS V14.00,2013-06-20 13:14:00,
2013-06-20 07:19:00,65.5,46.9,29.39,South,185,8.0,13.0,51,0.00,,---,0.00,VWS V14.00,2013-06-20 13:19:00,
2013-06-20 07:24:00,65.5,46.4,29.39,South,182,5.0,13.0,50,0.00,,---,0.00,VWS V14.00,2013-06-20 13:24:00,
2013-06-20 07:29:00,65.9,46.2,29.39,South,172,5.0,11.0,49,0.00,,---,0.00,VWS V14.00,2013-06-20 13:29:00,
2013-06-20 07:34:00,66.2,46.5,29.40,SSW,199,8.0,11.0,49,0.00,,---,0.00,VWS V14.00,2013-06-20 13:34:00,
2013-06-20 07:39:00,66.5,47.3,29.40,South,173,8.0,13.0,50,0.00,,---,0.00,VWS V14.00,2013-06-20 13:39:00,
2013-06-20 07:44:00,66.8,47.6,29.40,SSE,164,6.0,13.0,50,0.00,,---,0.00,VWS V14.00,2013-06-20 13:44:00,
2013-06-20 07:49:00,66.8,47.6,29.40,SSE,159,8.0,12.0,50,0.00,,---,0.00,VWS V14.00,2013-06-20 13:49:00,
2013-06-20 07:54:00,67.2,48.0,29.40,SSE,159,12.0,14.0,50,0.00,,---,0.00,VWS V14.00,2013-06-20 13:54:00,
2013-06-20 07:59:00,67.0,48.3,29.40,SSE,159,13.0,18.0,51,0.00,,---,0.00,VWS V14.00,2013-06-20 13:59:00,
2013-06-20 08:04:00,66.5,48.3,29.41,SSE,158,11.0,18.0,52,0.00,,---,0.00,VWS V14.00,2013-06-20 14:04:00,
2013-06-20 08:09:00,66.7,46.4,29.41,SSE,153,10.0,14.0,48,0.00,,---,0.00,VWS V14.00,2013-06-20 14:09:00,
2013-06-20 08:14:00,66.8,46.5,29.41,SSE,157,12.0,14.0,48,0.00,,---,0.00,VWS V14.00,2013-06-20 14:14:00,
2013-06-20 08:20:00,66.9,47.1,29.41,SE,146,11.0,12.0,49,0.00,,---,0.00,VWS V14.00,2013-06-20 14:20:00,
2013-06-20 08:25:00,66.7,46.4,29.42,SSE,147,11.0,15.0,48,0.00,,---,0.00,VWS V14.00,2013-06-20 14:25:00,
2013-06-20 08:30:00,66.7,47.0,29.42,SSE,157,8.0,13.0,49,0.00,,---,0.00,VWS V14.00,2013-06-20 14:30:00,
2013-06-20 08:35:00,67.6,46.1,29.42,South,171,12.0,13.0,46,0.00,,---,0.00,VWS V14.00,2013-06-20 14:35:00,
2013-06-20 08:40:00,67.7,45.6,29.42,ESE,123,11.0,13.0,45,0.00,,---,0.00,VWS V14.00,2013-06-20 14:40:00,
2013-06-20 08:45:00,67.6,43.1,29.42,SSE,151,9.0,10.0,41,0.00,,---,0.00,VWS V14.00,2013-06-20 14:45:00,
2013-06-20 08:50:00,68.1,43.5,29.42,SSE,163,9.0,14.0,41,0.00,,---,0.00,VWS V14.00,2013-06-20 14:50:00,
2013-06-20 08:55:00,68.3,42.4,29.43,SSE,149,10.0,12.0,39,0.00,,---,0.00,VWS V14.00,2013-06-20 14:55:00,
2013-06-20 09:00:00,68.6,40.6,29.43,SSE,150,10.0,13.0,36,0.00,,---,0.00,VWS V14.00,2013-06-20 15:00:00,
2013-06-20 09:05:00,68.8,41.5,29.42,SSE,152,12.0,12.0,37,0.00,,---,0.00,VWS V14.00,2013-06-20 15:05:00,
2013-06-20 09:10:00,69.3,40.5,29.42,SSE,148,8.0,14.0,35,0.00,,---,0.00,VWS V14.00,2013-06-20 15:10:00,
2013-06-20 09:15:00,69.8,40.2,29.43,SSE,150,8.0,13.0,34,0.00,,---,0.00,VWS V14.00,2013-06-20 15:15:00,
2013-06-20 09:20:00,70.6,41.7,29.42,SSE,156,11.0,13.0,35,0.00,,---,0.00,VWS V14.00,2013-06-20 15:20:00,
2013-06-20 09:25:00,70.4,41.5,29.43,SSE,160,11.0,11.0,35,0.00,,---,0.00,VWS V14.00,2013-06-20 15:25:00,
2013-06-20 09:30:00,70.9,44.0,29.43,SE,142,11.0,16.0,38,0.00,,---,0.00,VWS V14.00,2013-06-20 15:30:00,
2013-06-20 09:35:00,71.0,44.1,29.42,South,185,9.0,15.0,38,0.00,,---,0.00,VWS V14.00,2013-06-20 15:35:00,
2013-06-20 09:40:00,71.4,40.0,29.42,SSE,168,12.0,18.0,32,0.00,,---,0.00,VWS V14.00,2013-06-20 15:40:00,
2013-06-20 09:45:00,71.4,40.0,29.42,South,176,11.0,14.0,32,0.00,,---,0.00,VWS V14.00,2013-06-20 15:45:00,
2013-06-20 09:50:00,71.6,40.2,29.43,SE,138,12.0,18.0,32,0.00,,---,0.00,VWS V14.00,2013-06-20 15:50:00,
2013-06-20 09:55:00,71.8,39.6,29.42,SSE,161,12.0,16.0,31,0.00,,---,0.00,VWS V14.00,2013-06-20 15:55:00,
2013-06-20 10:00:00,72.4,39.2,29.43,South,173,11.0,16.0,30,0.00,,---,0.00,VWS V14.00,2013-06-20 16:00:00,
2013-06-20 10:05:00,72.8,38.7,29.42,SSE,155,13.0,15.0,29,0.00,,---,0.00,VWS V14.00,2013-06-20 16:05:00,
2013-06-20 10:11:00,73.0,38.9,29.43,SSE,153,10.0,15.0,29,0.00,,---,0.00,VWS V14.00,2013-06-20 16:11:00,
2013-06-20 10:16:00,73.4,39.2,29.42,SSE,160,13.0,14.0,29,0.00,,---,0.00,VWS V14.00,2013-06-20 16:16:00,
2013-06-20 10:21:00,73.7,39.5,29.43,SSE,164,13.0,16.0,29,0.00,,---,0.00,VWS V14.00,2013-06-20 16:21:00,
2013-06-20 10:26:00,74.0,38.9,29.42,SSE,155,9.0,15.0,28,0.00,,---,0.00,VWS V14.00,2013-06-20 16:26:00,
2013-06-20 10:31:00,73.9,37.8,29.43,South,173,13.0,16.0,27,0.00,,---,0.00,VWS V14.00,2013-06-20 16:31:00,
2013-06-20 10:36:00,74.5,37.4,29.42,SSE,155,13.0,13.0,26,0.00,,---,0.00,VWS V14.00,2013-06-20 16:36:00,
2013-06-20 10:41:00,75.1,36.9,29.43,SSE,161,14.0,17.0,25,0.00,,---,0.00,VWS V14.00,2013-06-20 16:41:00,
2013-06-20 10:46:00,74.9,34.6,29.43,SSE,151,9.0,17.0,23,0.00,,---,0.00,VWS V14.00,2013-06-20 16:46:00,
2013-06-20 10:51:00,74.9,33.5,29.43,SSE,148,9.0,17.0,22,0.00,,---,0.00,VWS V14.00,2013-06-20 16:51:00,
2013-06-20 10:56:00,75.1,32.5,29.43,SSE,168,10.0,14.0,21,0.00,,---,0.00,VWS V14.00,2013-06-20 16:56:00,
2013-06-20 11:01:00,74.7,32.2,29.43,SSE,148,9.0,14.0,21,0.00,,---,0.00,VWS V14.00,2013-06-20 17:01:00,
2013-06-20 11:06:00,75.4,31.6,29.43,SE,131,9.0,14.0,20,0.00,,---,0.00,VWS V14.00,2013-06-20 17:06:00,
2013-06-20 11:11:00,75.1,30.1,29.43,SSE,163,11.0,14.0,19,0.00,,---,0.00,VWS V14.00,2013-06-20 17:11:00,
2013-06-20 11:16:00,75.5,29.1,29.43,SSE,160,7.0,14.0,18,0.00,,---,0.00,VWS V14.00,2013-06-20 17:16:00,
2013-06-20 11:21:00,75.7,30.6,29.43,SSE,167,8.0,14.0,19,0.00,,---,0.00,VWS V14.00,2013-06-20 17:21:00,
2013-06-20 11:26:00,75.7,29.2,29.43,ESE,121,8.0,9.0,18,0.00,,---,0.00,VWS V14.00,2013-06-20 17:26:00,
2013-06-20 11:31:00,76.0,29.5,29.43,SSW,192,0.0,12.0,18,0.00,,---,0.00,VWS V14.00,2013-06-20 17:31:00,
2013-06-20 11:36:00,76.2,29.6,29.43,SSE,163,0.0,13.0,18,0.00,,---,0.00,VWS V14.00,2013-06-20 17:36:00,
2013-06-20 11:41:00,76.2,29.6,29.42,SSW,202,1.0,13.0,18,0.00,,---,0.00,VWS V14.00,2013-06-20 17:41:00,
2013-06-20 11:46:00,76.7,31.4,29.42,ESE,123,4.0,8.0,19,0.00,,---,0.00,VWS V14.00,2013-06-20 17:46:00,
2013-06-20 11:52:00,77.0,31.6,29.42,SSE,152,7.0,12.0,19,0.00,,---,0.00,VWS V14.00,2013-06-20 17:52:00,
2013-06-20 11:57:00,77.6,33.4,29.42,SSE,159,10.0,13.0,20,0.00,,---,0.00,VWS V14.00,2013-06-20 17:57:00,
2013-06-20 12:02:00,77.1,31.7,29.42,SSW,205,6.0,14.0,19,0.00,,---,0.00,VWS V14.00,2013-06-20 18:02:00,
2013-06-20 12:07:00,76.9,32.8,29.42,SE,133,8.0,12.0,20,0.00,,---,0.00,VWS V14.00,2013-06-20 18:07:00,
2013-06-20 12:12:00,77.3,31.9,29.42,South,175,6.0,13.0,19,0.00,,---,0.00,VWS V14.00,2013-06-20 18:12:00,
2013-06-20 12:17:00,77.9,31.0,29.42,SSE,167,8.0,14.0,18,0.00,,---,0.00,VWS V14.00,2013-06-20 18:17:00,
2013-06-20 12:22:00,77.8,32.3,29.42,SSE,162,15.0,17.0,19,0.00,,---,0.00,VWS V14.00,2013-06-20 18:22:00,
2013-06-20 12:27:00,78.3,31.4,29.42,SSE,153,11.0,13.0,18,0.00,,---,0.00,VWS V14.00,2013-06-20 18:27:00,
2013-06-20 12:32:00,78.8,31.8,29.42,SSE,148,10.0,15.0,18,0.00,,---,0.00,VWS V14.00,2013-06-20 18:32:00,
2013-06-20 12:37:00,78.6,30.2,29.42,ESE,122,5.0,14.0,17,0.00,,---,0.00,VWS V14.00,2013-06-20 18:37:00,
2013-06-20 12:42:00,79.5,30.9,29.41,SE,128,8.0,14.0,17,0.00,,---,0.00,VWS V14.00,2013-06-20 18:42:00,
2013-06-20 12:47:00,79.1,30.6,29.41,ESE,109,5.0,15.0,17,0.00,,---,0.00,VWS V14.00,2013-06-20 18:47:00,
2013-06-20 12:52:00,79.7,31.1,29.41,East,82,3.0,15.0,17,0.00,,---,0.00,VWS V14.00,2013-06-20 18:52:00,
2013-06-20 12:57:00,79.7,29.6,29.41,ESE,105,4.0,11.0,16,0.00,,---,0.00,VWS V14.00,2013-06-20 18:57:00,
2013-06-20 13:02:00,79.3,27.7,29.40,SE,146,10.0,14.0,15,0.00,,---,0.00,VWS V14.00,2013-06-20 19:02:00,
2013-06-20 13:07:00,79.5,30.9,29.40,ESE,117,12.0,13.0,17,0.00,,---,0.00,VWS V14.00,2013-06-20 19:07:00,
2013-06-20 13:12:00,79.5,30.9,29.40,SSE,152,11.0,18.0,17,0.00,,---,0.00,VWS V14.00,2013-06-20 19:12:00,
2013-06-20 13:17:00,80.1,31.4,29.40,SSE,150,11.0,17.0,17,0.00,,---,0.00,VWS V14.00,2013-06-20 19:17:00,
2013-06-20 13:22:00,79.9,29.7,29.40,SSE,153,13.0,17.0,16,0.00,,---,0.00,VWS V14.00,2013-06-20 19:22:00,
2013-06-20 13:27:00,79.8,28.1,29.40,ESE,108,5.0,14.0,15,0.00,,---,0.00,VWS V14.00,2013-06-20 19:27:00,
2013-06-20 13:32:00,80.2,30.0,29.40,SSE,155,8.0,15.0,16,0.00,,---,0.00,VWS V14.00,2013-06-20 19:32:00,
2013-06-20 13:37:00,80.2,31.5,29.39,SSE,155,11.0,19.0,17,0.00,,---,0.00,VWS V14.00,2013-06-20 19:37:00,
2013-06-20 13:42:00,80.4,31.6,29.39,SSE,147,15.0,19.0,17,0.00,,---,0.00,VWS V14.00,2013-06-20 19:42:00,
2013-06-20 13:48:00,80.3,31.6,29.39,South,190,6.0,11.0,17,0.00,,---,0.00,VWS V14.00,2013-06-20 19:48:00,
2013-06-20 13:53:00,80.8,33.4,29.39,SSE,148,6.0,18.0,18,0.00,,---,0.00,VWS V14.00,2013-06-20 19:53:00,
2013-06-20 13:58:00,81.0,30.6,29.39,SSE,148,7.0,13.0,16,0.00,,---,0.00,VWS V14.00,2013-06-20 19:58:00,
2013-06-20 14:03:00,80.9,30.5,29.38,SSE,165,11.0,14.0,16,0.00,,---,0.00,VWS V14.00,2013-06-20 20:03:00,
2013-06-20 14:08:00,81.2,30.8,29.38,SSE,151,10.0,18.0,16,0.00,,---,0.00,VWS V14.00,2013-06-20 20:08:00,
2013-06-20 14:13:00,81.2,30.8,29.38,South,180,4.0,18.0,16,0.00,,---,0.00,VWS V14.00,2013-06-20 20:13:00,
2013-06-20 14:18:00,81.1,30.7,29.38,SSE,155,2.0,11.0,16,0.00,,---,0.00,VWS V14.00,2013-06-20 20:18:00,
2013-06-20 14:23:00,81.2,30.8,29.38,SSW,194,4.0,11.0,16,0.00,,---,0.00,VWS V14.00,2013-06-20 20:23:00,
2013-06-20 14:28:00,81.8,31.3,29.38,South,169,1.0,14.0,16,0.00,,---,0.00,VWS V14.00,2013-06-20 20:28:00,
2013-06-20 14:33:00,81.9,31.4,29.38,SE,134,14.0,14.0,16,0.00,,---,0.00,VWS V14.00,2013-06-20 20:33:00,
2013-06-20 14:38:00,82.6,28.6,29.38,SSE,163,8.0,19.0,14,0.00,,---,0.00,VWS V14.00,2013-06-20 20:38:00,
2013-06-20 14:43:00,82.0,29.8,29.38,South,177,8.0,19.0,15,0.00,,---,0.00,VWS V14.00,2013-06-20 20:43:00,
2013-06-20 14:48:00,81.9,31.4,29.37,South,173,11.0,14.0,16,0.00,,---,0.00,VWS V14.00,2013-06-20 20:48:00,
2013-06-20 14:53:00,82.2,31.6,29.37,SSE,168,10.0,14.0,16,0.00,,---,0.00,VWS V14.00,2013-06-20 20:53:00,
2013-06-20 14:58:00,82.6,30.3,29.37,SSE,147,17.0,22.0,15,0.00,,---,0.00,VWS V14.00,2013-06-20 20:58:00,
2013-06-20 15:03:00,82.7,30.4,29.37,South,182,10.0,22.0,15,0.00,,---,0.00,VWS V14.00,2013-06-20 21:03:00,
2013-06-20 15:08:00,83.1,32.3,29.37,South,169,7.0,12.0,16,0.00,,---,0.00,VWS V14.00,2013-06-20 21:08:00,
2013-06-20 15:13:00,83.0,30.6,29.37,SSW,199,9.0,17.0,15,0.00,,---,0.00,VWS V14.00,2013-06-20 21:13:00,
2013-06-20 15:18:00,83.0,32.2,29.37,SE,146,1.0,14.0,16,0.00,,---,0.00,VWS V14.00,2013-06-20 21:18:00,
2013-06-20 15:23:00,83.0,28.9,29.36,SSE,149,19.0,19.0,14,0.00,,---,0.00,VWS V14.00,2013-06-20 21:23:00,
2013-06-20 15:28:00,83.2,29.1,29.37,SSE,167,7.0,13.0,14,0.00,,---,0.00,VWS V14.00,2013-06-20 21:28:00,
2013-06-20 15:33:00,83.1,29.0,29.36,SSE,167,15.0,16.0,14,0.00,,---,0.00,VWS V14.00,2013-06-20 21:33:00,
2013-06-20 15:39:00,82.9,30.6,29.36,SSE,148,14.0,15.0,15,0.00,,---,0.00,VWS V14.00,2013-06-20 21:39:00,
2013-06-20 15:44:00,83.1,30.7,29.36,South,177,10.0,15.0,15,0.00,,---,0.00,VWS V14.00,2013-06-20 21:44:00,
2013-06-20 15:49:00,83.3,30.9,29.36,South,169,2.0,20.0,15,0.00,,---,0.00,VWS V14.00,2013-06-20 21:49:00,
2013-06-20 15:54:00,83.5,29.3,29.36,SE,133,9.0,20.0,14,0.00,,---,0.00,VWS V14.00,2013-06-20 21:54:00,
2013-06-20 15:59:00,83.5,27.5,29.36,SSE,148,9.0,13.0,13,0.00,,---,0.00,VWS V14.00,2013-06-20 21:59:00,
2013-06-20 16:04:00,83.8,29.6,29.36,SSE,162,8.0,15.0,14,0.00,,---,0.00,VWS V14.00,2013-06-20 22:04:00,
2013-06-20 16:09:00,83.8,27.8,29.36,South,169,8.0,12.0,13,0.00,,---,0.00,VWS V14.00,2013-06-20 22:09:00,
2013-06-20 16:14:00,83.9,27.8,29.36,SSE,168,6.0,12.0,13,0.00,,---,0.00,VWS V14.00,2013-06-20 22:14:00,
2013-06-20 16:19:00,83.9,27.8,29.36,SSE,159,7.0,12.0,13,0.00,,---,0.00,VWS V14.00,2013-06-20 22:19:00,
2013-06-20 16:24:00,83.7,29.5,29.36,South,171,6.0,12.0,14,0.00,,---,0.00,VWS V14.00,2013-06-20 22:24:00,
2013-06-20 16:29:00,83.8,29.6,29.36,SSE,155,6.0,8.0,14,0.00,,---,0.00,VWS V14.00,2013-06-20 22:29:00,
2013-06-20 16:34:00,84.1,28.0,29.35,SE,144,8.0,9.0,13,0.00,,---,0.00,VWS V14.00,2013-06-20 22:34:00,
2013-06-20 16:39:00,84.0,29.7,29.35,SSE,167,7.0,9.0,14,0.00,,---,0.00,VWS V14.00,2013-06-20 22:39:00,
2013-06-20 16:44:00,83.7,27.7,29.35,SSE,167,7.0,13.0,13,0.00,,---,0.00,VWS V14.00,2013-06-20 22:44:00,
2013-06-20 16:49:00,82.5,28.5,29.35,SSE,156,10.0,12.0,14,0.00,,---,0.00,VWS V14.00,2013-06-20 22:49:00,
2013-06-20 16:54:00,82.1,28.2,29.35,SE,146,5.0,13.0,14,0.00,,---,0.00,VWS V14.00,2013-06-20 22:54:00,
2013-06-20 16:59:00,82.3,26.6,29.35,SE,144,2.0,7.0,13,0.00,,---,0.00,VWS V14.00,2013-06-20 22:59:00,
2013-06-20 17:04:00,82.6,28.6,29.35,SSE,148,9.0,9.0,14,0.00,,---,0.00,VWS V14.00,2013-06-20 23:04:00,
2013-06-20 17:09:00,83.6,27.6,29.34,SSE,160,8.0,10.0,13,0.00,,---,0.00,VWS V14.00,2013-06-20 23:09:00,
2013-06-20 17:14:00,83.8,27.8,29.35,South,173,5.0,14.0,13,0.00,,---,0.00,VWS V14.00,2013-06-20 23:14:00,
2013-06-20 17:19:00,84.2,28.1,29.34,ESE,106,2.0,17.0,13,0.00,,---,0.00,VWS V14.00,2013-06-20 23:19:00,
2013-06-20 17:25:00,84.2,29.9,29.34,ESE,122,6.0,17.0,14,0.00,,---,0.00,VWS V14.00,2013-06-20 23:25:00,
2013-06-20 17:30:00,84.5,30.1,29.34,SE,137,7.0,11.0,14,0.00,,---,0.00,VWS V14.00,2013-06-20 23:30:00,
2013-06-20 17:35:00,84.1,28.0,29.34,South,180,3.0,18.0,13,0.00,,---,0.00,VWS V14.00,2013-06-20 23:35:00,
2013-06-20 17:40:00,83.1,29.0,29.34,South,177,4.0,10.0,14,0.00,,---,0.00,VWS V14.00,2013-06-20 23:40:00,
2013-06-20 17:45:00,82.2,28.3,29.34,SSE,153,8.0,9.0,14,0.00,,---,0.00,VWS V14.00,2013-06-20 23:45:00,
2013-06-20 17:50:00,81.8,28.0,29.34,South,180,6.0,9.0,14,0.00,,---,0.00,VWS V14.00,2013-06-20 23:50:00,
2013-06-20 17:55:00,81.8,28.0,29.34,South,173,7.0,7.0,14,0.00,,---,0.00,VWS V14.00,2013-06-20 23:55:00,
2013-06-20 18:00:00,82.1,29.9,29.34,South,180,5.0,8.0,15,0.00,,---,0.00,VWS V14.00,2013-06-21 00:00:00,
2013-06-20 18:05:00,82.5,31.8,29.34,ESE,115,6.0,6.0,16,0.00,,---,0.00,VWS V14.00,2013-06-21 00:05:00,
2013-06-20 18:10:00,83.2,30.8,29.34,SE,124,7.0,8.0,15,0.00,,---,0.00,VWS V14.00,2013-06-21 00:10:00,
2013-06-20 18:15:00,83.3,27.4,29.33,SE,142,5.0,5.0,13,0.00,,---,0.00,VWS V14.00,2013-06-21 00:15:00,
2013-06-20 18:20:00,82.7,28.7,29.33,SSE,158,10.0,13.0,14,0.00,,---,0.00,VWS V14.00,2013-06-21 00:20:00,
2013-06-20 18:25:00,82.5,28.5,29.33,SSE,156,7.0,9.0,14,0.00,,---,0.00,VWS V14.00,2013-06-21 00:25:00,
2013-06-20 18:30:00,82.3,28.4,29.33,SSE,155,9.0,13.0,14,0.00,,---,0.00,VWS V14.00,2013-06-21 00:30:00,
2013-06-20 18:35:00,82.1,28.2,29.34,SSE,159,10.0,11.0,14,0.00,,---,0.00,VWS V14.00,2013-06-21 00:35:00,
2013-06-20 18:40:00,81.9,28.1,29.34,South,176,6.0,12.0,14,0.00,,---,0.00,VWS V14.00,2013-06-21 00:40:00,
2013-06-20 18:45:00,81.8,29.7,29.34,South,187,5.0,6.0,15,0.00,,---,0.00,VWS V14.00,2013-06-21 00:45:00,
2013-06-20 18:50:00,81.8,29.7,29.34,South,185,4.0,6.0,15,0.00,,---,0.00,VWS V14.00,2013-06-21 00:50:00,
2013-06-20 18:55:00,81.7,31.2,29.34,South,185,2.0,4.0,16,0.00,,---,0.00,VWS V14.00,2013-06-21 00:55:00,
2013-06-20 19:00:00,81.6,32.6,29.34,South,171,4.0,5.0,17,0.00,,---,0.00,VWS V14.00,2013-06-21 01:00:00,
2013-06-20 19:05:00,81.6,32.6,29.34,SSE,149,2.0,5.0,17,0.00,,---,0.00,VWS V14.00,2013-06-21 01:05:00,
2013-06-20 19:10:00,81.5,34.0,29.34,SSE,150,4.0,7.0,18,0.00,,---,0.00,VWS V14.00,2013-06-21 01:10:00,
2013-06-20 19:16:00,81.3,33.8,29.34,South,169,7.0,8.0,18,0.00,,---,0.00,VWS V14.00,2013-06-21 01:16:00,
2013-06-20 19:21:00,81.1,35.0,29.34,SE,144,0.0,8.0,19,0.00,,---,0.00,VWS V14.00,2013-06-21 01:21:00,
2013-06-20 19:26:00,80.9,37.3,29.34,SE,136,4.0,6.0,21,0.00,,---,0.00,VWS V14.00,2013-06-21 01:26:00,
2013-06-20 19:31:00,80.6,35.9,29.34,SE,145,2.0,7.0,20,0.00,,---,0.00,VWS V14.00,2013-06-21 01:31:00,
2013-06-20 19:36:00,80.3,36.8,29.34,SE,145,0.0,0.0,21,0.00,,---,0.00,VWS V14.00,2013-06-21 01:36:00,
2013-06-20 19:41:00,80.2,36.8,29.34,SE,145,0.0,0.0,21,0.00,,---,0.00,VWS V14.00,2013-06-21 01:41:00,
2013-06-20 19:46:00,80.0,35.4,29.35,SE,145,0.0,0.0,20,0.00,,---,0.00,VWS V14.00,2013-06-21 01:46:00,
2013-06-20 19:51:00,79.8,35.2,29.35,SSE,149,1.0,4.0,20,0.00,,---,0.00,VWS V14.00,2013-06-21 01:51:00,
2013-06-20 19:56:00,79.6,36.3,29.35,SSE,149,0.0,0.0,21,0.00,,---,0.00,VWS V14.00,2013-06-21 01:56:00,
2013-06-20 20:01:00,79.2,35.9,29.35,SSE,149,0.0,0.0,21,0.00,,---,0.00,VWS V14.00,2013-06-21 02:01:00,
2013-06-20 20:06:00,79.0,35.8,29.35,SSE,150,0.0,0.0,21,0.00,,---,0.00,VWS V14.00,2013-06-21 02:06:00,
2013-06-20 20:11:00,78.7,35.5,29.35,SSE,151,4.0,4.0,21,0.00,,---,0.00,VWS V14.00,2013-06-21 02:11:00,
2013-06-20 20:16:00,78.5,35.4,29.35,South,187,0.0,0.0,21,0.00,,---,0.00,VWS V14.00,2013-06-21 02:16:00,
2013-06-20 20:21:00,78.5,35.4,29.35,NW,312,0.0,3.0,21,0.00,,---,0.00,VWS V14.00,2013-06-21 02:21:00,
2013-06-20 20:26:00,78.4,35.3,29.35,NW,312,0.0,1.0,21,0.00,,---,0.00,VWS V14.00,2013-06-21 02:26:00,
2013-06-20 20:31:00,77.9,36.0,29.35,NW,321,4.0,4.0,22,0.00,,---,0.00,VWS V14.00,2013-06-21 02:31:00,
2013-06-20 20:36:00,77.3,35.5,29.36,WNW,288,6.0,8.0,22,0.00,,---,0.00,VWS V14.00,2013-06-21 02:36:00,
2013-06-20 20:41:00,77.3,34.4,29.36,NW,323,0.0,8.0,21,0.00,,---,0.00,VWS V14.00,2013-06-21 02:41:00,
2013-06-20 20:46:00,77.1,35.4,29.37,NW,323,0.0,1.0,22,0.00,,---,0.00,VWS V14.00,2013-06-21 02:46:00,
2013-06-20 20:51:00,77.4,34.5,29.37,NW,323,3.0,3.0,21,0.00,,---,0.00,VWS V14.00,2013-06-21 02:51:00,
2013-06-20 20:56:00,77.5,35.7,29.37,SW,225,0.0,6.0,22,0.00,,---,0.00,VWS V14.00,2013-06-21 02:56:00,
2013-06-20 21:01:00,77.1,36.5,29.37,SW,225,0.0,6.0,23,0.00,,---,0.00,VWS V14.00,2013-06-21 03:01:00,
2013-06-20 21:06:00,76.7,35.0,29.37,WSW,246,0.0,1.0,22,0.00,,---,0.00,VWS V14.00,2013-06-21 03:06:00,
2013-06-20 21:12:00,76.2,34.6,29.38,West,279,4.0,5.0,22,0.00,,---,0.00,VWS V14.00,2013-06-21 03:12:00,
2013-06-20 21:17:00,77.1,35.4,29.38,South,180,0.0,1.0,22,0.00,,---,0.00,VWS V14.00,2013-06-21 03:17:00,
2013-06-20 21:22:00,76.6,35.0,29.38,SSW,192,0.0,1.0,22,0.00,,---,0.00,VWS V14.00,2013-06-21 03:22:00,
2013-06-20 21:27:00,76.3,34.7,29.38,NNW,333,5.0,6.0,22,0.00,,---,0.00,VWS V14.00,2013-06-21 03:27:00,
2013-06-20 21:32:00,76.5,34.9,29.39,North,9,0.0,7.0,22,0.00,,---,0.00,VWS V14.00,2013-06-21 03:32:00,
2013-06-20 21:37:00,76.7,35.0,29.40,North,9,0.0,0.0,22,0.00,,---,0.00,VWS V14.00,2013-06-21 03:37:00,
2013-06-20 21:42:00,76.5,36.0,29.40,North,9,0.0,1.0,23,0.00,,---,0.00,VWS V14.00,2013-06-21 03:42:00,
2013-06-20 21:47:00,76.3,35.8,29.40,North,9,0.0,0.0,23,0.00,,---,0.00,VWS V14.00,2013-06-21 03:47:00,
2013-06-20 21:52:00,76.2,35.7,29.40,North,9,0.0,0.0,23,0.00,,---,0.00,VWS V14.00,2013-06-21 03:52:00,
2013-06-20 21:57:00,76.0,35.6,29.40,North,9,0.0,0.0,23,0.00,,---,0.00,VWS V14.00,2013-06-21 03:57:00,
2013-06-20 22:01:00,76.1,35.7,29.40,North,9,0.0,0.0,23,0.00,,---,0.00,VWS V14.00,2013-06-21 04:01:00,
2013-06-20 22:02:00,76.1,35.7,29.40,North,9,0.0,0.0,23,0.00,,---,0.00,VWS V14.00,2013-06-21 04:02:00,
2013-06-20 22:03:00,76.1,35.7,29.40,North,9,0.0,1.0,23,0.00,,---,0.00,VWS V14.00,2013-06-21 04:03:00,
2013-06-20 22:08:00,75.8,36.5,29.40,North,9,0.0,0.0,24,0.00,,---,0.00,VWS V14.00,2013-06-21 04:08:00,
2013-06-20 22:13:00,74.9,36.7,29.41,North,9,0.0,0.0,25,0.00,,---,0.00,VWS V14.00,2013-06-21 04:13:00,
2013-06-20 22:18:00,74.2,36.2,29.41,North,9,0.0,0.0,25,0.00,,---,0.00,VWS V14.00,2013-06-21 04:18:00,
2013-06-20 22:23:00,74.5,36.4,29.42,North,9,0.0,1.0,25,0.00,,---,0.00,VWS V14.00,2013-06-21 04:23:00,
2013-06-20 22:29:00,73.8,37.8,29.42,SSE,157,0.0,6.0,27,0.00,,---,0.00,VWS V14.00,2013-06-21 04:29:00,
2013-06-20 22:34:00,74.6,39.4,29.42,SSE,158,0.0,6.0,28,0.00,,---,0.00,VWS V14.00,2013-06-21 04:34:00,
2013-06-20 22:39:00,75.3,40.9,29.42,SSE,160,0.0,4.0,29,0.00,,---,0.00,VWS V14.00,2013-06-21 04:39:00,
2013-06-20 22:44:00,75.6,40.2,29.42,SSE,163,0.0,5.0,28,0.00,,---,0.00,VWS V14.00,2013-06-21 04:44:00,
2013-06-20 22:49:00,74.7,39.5,29.42,SSE,163,0.0,1.0,28,0.00,,---,0.00,VWS V14.00,2013-06-21 04:49:00,
2013-06-20 22:54:00,74.8,40.5,29.42,SSE,163,0.0,1.0,29,0.00,,---,0.00,VWS V14.00,2013-06-21 04:54:00,
2013-06-20 22:59:00,75.3,41.8,29.42,North,355,6.0,6.0,30,0.00,,---,0.00,VWS V14.00,2013-06-21 04:59:00,
2013-06-20 23:04:00,73.6,39.4,29.42,North,350,0.0,6.0,29,0.00,,---,0.00,VWS V14.00,2013-06-21 05:04:00,
2013-06-20 23:09:00,72.7,40.3,29.42,NNW,340,1.0,5.0,31,0.00,,---,0.00,VWS V14.00,2013-06-21 05:09:00,
2013-06-20 23:14:00,72.5,40.2,29.42,WNW,299,5.0,6.0,31,0.00,,---,0.00,VWS V14.00,2013-06-21 05:14:00,
2013-06-20 23:19:00,72.7,44.2,29.42,WNW,290,4.0,8.0,36,0.00,,---,0.00,VWS V14.00,2013-06-21 05:19:00,
2013-06-20 23:24:00,73.4,46.3,29.42,WNW,294,0.0,8.0,38,0.00,,---,0.00,VWS V14.00,2013-06-21 05:24:00,
2013-06-20 23:29:00,73.3,40.9,29.42,NW,320,4.0,6.0,31,0.00,,---,0.00,VWS V14.00,2013-06-21 05:29:00,
2013-06-20 23:34:00,72.4,38.4,29.42,NW,316,9.0,11.0,29,0.00,,---,0.00,VWS V14.00,2013-06-21 05:34:00,
2013-06-20 23:39:00,72.4,36.6,29.42,NW,305,10.0,11.0,27,0.00,,---,0.00,VWS V14.00,2013-06-21 05:39:00,
2013-06-20 23:44:00,72.1,35.4,29.42,NW,314,11.0,13.0,26,0.00,,---,0.00,VWS V14.00,2013-06-21 05:44:00,
2013-06-20 23:49:00,72.3,36.5,29.42,NW,317,10.0,13.0,27,0.00,,---,0.00,VWS V14.00,2013-06-21 05:49:00,
2013-06-20 23:54:00,72.4,40.9,29.42,NW,321,10.0,13.0,32,0.00,,---,0.00,VWS V14.00,2013-06-21 05:54:00,
2013-06-20 23:59:00,72.4,40.1,29.42,NW,313,10.0,13.0,31,0.00,,---,0.00,VWS V14.00,2013-06-21 05:59:00,